Time;durP1;ratioP1;P1;durP2;ratioP2;P2;SDS_P1;SDS_P2;PMS_P1;PMS_P2;Temp;Humidity;BMP_temperature;BMP_pressure;BME280_temperature;BME280_humidity;BME280_pressure;Samples;Min_cycle;Max_cycle;Signal;HPM_P1;HPM_P2
2022/07/03 00:00:41;;;;;;;5.95;3.53;;;;;;;;;;5032132;28;20064;-56
2022/07/03 00:03:07;;;;;;;3.97;3.10;;;;;;;;;;5032483;28;20711;-56
2022/07/03 00:05:32;;;;;;;5.55;3.47;;;;;;;;;;5031544;28;20048;-56
2022/07/03 00:07:57;;;;;;;5.03;3.25;;;;;;;;;;5032547;28;20108;-56
2022/07/03 00:10:23;;;;;;;4.57;3.10;;;;;;;;;;5032020;28;20025;-56
2022/07/03 00:12:48;;;;;;;3.22;2.70;;;;;;;;;;5031595;28;20079;-56
2022/07/03 00:15:14;;;;;;;5.22;2.50;;;;;;;;;;5031754;28;20033;-56
2022/07/03 00:17:39;;;;;;;3.85;2.15;;;;;;;;;;5032567;28;20538;-57
2022/07/03 00:20:05;;;;;;;3.97;2.63;;;;;;;;;;5032315;28;20056;-57
2022/07/03 00:22:33;;;;;;;2.70;2.50;;;;;;;;;;5031302;28;20025;-57
2022/07/03 00:25:04;;;;;;;4.20;2.20;;;;;;;;;;5031677;28;20475;-57
2022/07/03 00:27:33;;;;;;;4.03;2.53;;;;;;;;;;5032077;28;20480;-56
2022/07/03 00:29:59;;;;;;;2.88;2.50;;;;;;;;;;5033572;28;20025;-56
2022/07/03 00:32:26;;;;;;;3.47;2.53;;;;;;;;;;5045051;28;20029;-56
2022/07/03 00:34:54;;;;;;;2.83;2.60;;;;;;;;;;5033997;28;20076;-56
2022/07/03 00:37:21;;;;;;;1146.57;166.73;;;;;;;;;;5044615;28;20495;-56
2022/07/03 00:39:48;;;;;;;3.28;2.67;;;;;;;;;;5042485;28;20029;-57
2022/07/03 00:42:13;;;;;;;3.20;2.00;;;;;;;;;;5031248;28;20029;-56
2022/07/03 00:44:45;;;;;;;3.88;2.35;;;;;;;;;;5032492;28;20376;-56
2022/07/03 00:47:12;;;;;;;3.00;2.40;;;;;;;;;;5032031;28;20029;-56
2022/07/03 00:49:39;;;;;;;3.58;2.17;;;;;;;;;;5039224;28;20033;-57
2022/07/03 00:52:05;;;;;;;3.88;2.65;;;;;;;;;;5031264;28;20075;-56
2022/07/03 00:54:35;;;;;;;4.63;2.72;;;;;;;;;;5030977;28;20601;-57
2022/07/03 00:57:03;;;;;;;325.08;119.45;;;;;;;;;;5037345;28;20021;-57
2022/07/03 00:59:29;;;;;;;1999.90;999.90;;;;;;;;;;5037608;28;20395;-56
2022/07/03 01:02:05;;;;;;;22.35;21.45;;;;;;;;;;5030536;28;20044;-56
2022/07/03 01:04:36;;;;;;;24.38;23.38;;;;;;;;;;5032038;28;20033;-56
2022/07/03 01:07:06;;;;;;;1999.90;999.90;;;;;;;;;;5036270;28;20061;-56
2022/07/03 01:09:54;;;;;;;;;;;;;;;;;;5031893;28;20025;-55
2022/07/03 01:12:37;;;;;;;1999.90;999.90;;;;;;;;;;5048311;28;20282;-56
2022/07/03 01:15:08;;;;;;;51.67;11.57;;;;;;;;;;5032259;28;20491;-56
2022/07/03 01:17:38;;;;;;;0.80;0.80;;;;;;;;;;5034889;28;20033;-56
2022/07/03 01:20:06;;;;;;;1.33;1.33;;;;;;;;;;5030881;28;20092;-56
2022/07/03 01:22:44;;;;;;;1.30;1.30;;;;;;;;;;5030312;28;20025;-56
2022/07/03 01:25:14;;;;;;;1.70;1.60;;;;;;;;;;5029744;28;20120;-56
2022/07/03 01:27:39;;;;;;;1500.57;750.55;;;;;;;;;;5037282;28;20037;-56
2022/07/03 01:30:10;;;;;;;2.70;2.35;;;;;;;;;;5049711;28;20102;-56
2022/07/03 01:32:43;;;;;;;3.08;2.38;;;;;;;;;;5024416;28;20029;-56
2022/07/03 01:35:13;;;;;;;849.55;230.95;;;;;;;;;;5031385;28;20034;-56
2022/07/03 01:37:40;;;;;;;3.30;2.72;;;;;;;;;;5030903;28;20033;-56
2022/07/03 01:40:07;;;;;;;3.05;2.75;;;;;;;;;;5018461;28;20036;-56
2022/07/03 01:42:34;;;;;;;2.95;2.67;;;;;;;;;;5032255;28;20328;-56
2022/07/03 01:45:02;;;;;;;4.85;2.92;;;;;;;;;;5040958;28;20644;-56
2022/07/03 01:47:28;;;;;;;5.03;3.10;;;;;;;;;;5046687;28;20052;-56
2022/07/03 01:49:55;;;;;;;4.30;2.97;;;;;;;;;;5030387;28;20034;-55
2022/07/03 01:52:21;;;;;;;5.35;4.53;;;;;;;;;;5029755;28;20037;-56
2022/07/03 01:54:48;;;;;;;5.20;3.65;;;;;;;;;;5036356;28;20041;-56
2022/07/03 01:57:14;;;;;;;5.38;3.78;;;;;;;;;;5033543;28;20037;-56
2022/07/03 01:59:39;;;;;;;3.92;3.30;;;;;;;;;;5045693;28;20090;-56
2022/07/03 02:02:30;;;;;;;3.60;3.28;;;;;;;;;;5043336;28;20094;-55
2022/07/03 02:05:19;;;;;;;268.40;20.15;;;;;;;;;;5027221;28;20116;-56
2022/07/03 02:07:58;;;;;;;4.05;3.35;;;;;;;;;;5025621;28;20095;-56
2022/07/03 02:10:29;;;;;;;5.50;4.22;;;;;;;;;;5029922;28;20041;-56
2022/07/03 02:13:07;;;;;;;8.27;3.78;;;;;;;;;;5029671;28;20380;-56
2022/07/03 02:15:34;;;;;;;7.03;4.43;;;;;;;;;;5030562;28;20105;-56
2022/07/03 02:18:27;;;;;;;5.55;4.03;;;;;;;;;;5030116;28;20030;-56
2022/07/03 02:21:03;;;;;;;6.70;4.00;;;;;;;;;;5029401;28;20053;-56
2022/07/03 02:23:32;;;;;;;4.20;3.58;;;;;;;;;;5030194;28;20031;-56
2022/07/03 02:26:00;;;;;;;;;;;;;;;;;;5030093;28;20037;-56
2022/07/03 02:29:04;;;;;;;4.75;3.50;;;;;;;;;;5045121;28;20336;-55
2022/07/03 02:31:38;;;;;;;6.07;3.42;;;;;;;;;;5033466;28;20057;-56
2022/07/03 02:34:05;;;;;;;5.25;3.30;;;;;;;;;;5034243;28;20087;-56
2022/07/03 02:36:33;;;;;;;4.43;3.22;;;;;;;;;;5033902;28;20040;-56
2022/07/03 02:38:59;;;;;;;3.55;3.05;;;;;;;;;;5037275;28;20104;-56
2022/07/03 02:41:50;;;;;;;3.45;2.72;;;;;;;;;;5046137;28;20424;-56
2022/07/03 02:44:27;;;;;;;3.40;2.85;;;;;;;;;;5039712;28;20080;-56
2022/07/03 02:46:57;;;;;;;6.90;3.10;;;;;;;;;;5037099;28;20484;-57
2022/07/03 02:49:37;;;;;;;3.47;2.92;;;;;;;;;;5039863;28;20031;-56
2022/07/03 02:52:18;;;;;;;3.13;2.65;;;;;;;;;;5051624;28;20051;-56
2022/07/03 02:54:46;;;;;;;3.20;2.90;;;;;;;;;;5047255;28;20520;-56
2022/07/03 02:57:16;;;;;;;3.30;3.00;;;;;;;;;;5040348;28;20074;-56
2022/07/03 03:00:00;;;;;;;6.07;2.80;;;;;;;;;;5033672;28;20116;-56
2022/07/03 03:02:40;;;;;;;3.45;2.42;;;;;;;;;;5038280;28;20037;-56
2022/07/03 03:05:14;;;;;;;2.45;2.13;;;;;;;;;;5033445;28;20048;-56
2022/07/03 03:07:45;;;;;;;4.10;2.53;;;;;;;;;;5034086;28;20029;-56
2022/07/03 03:10:14;;;;;;;2.55;2.33;;;;;;;;;;5033286;28;20371;-56
2022/07/03 03:12:46;;;;;;;3.72;2.63;;;;;;;;;;5037845;28;20100;-56
2022/07/03 03:15:12;;;;;;;4.28;2.55;;;;;;;;;;5043502;28;20037;-56
2022/07/03 03:17:49;;;;;;;4.85;2.63;;;;;;;;;;5033645;28;20442;-56
2022/07/03 03:20:16;;;;;;;3.03;2.47;;;;;;;;;;5032791;28;20040;-56
2022/07/03 03:23:02;;;;;;;3.40;2.50;;;;;;;;;;5032758;28;20022;-56
2022/07/03 03:25:28;;;;;;;2.90;2.33;;;;;;;;;;5032610;28;20388;-56
2022/07/03 03:27:53;;;;;;;3.38;2.75;;;;;;;;;;5034452;28;20024;-56
2022/07/03 03:30:20;;;;;;;3.58;2.72;;;;;;;;;;5033483;28;20539;-56
2022/07/03 03:32:45;;;;;;;5.43;2.75;;;;;;;;;;5035153;28;20036;-56
2022/07/03 03:35:10;;;;;;;9.73;2.75;;;;;;;;;;5036481;28;20116;-56
2022/07/03 03:37:36;;;;;;;3.45;2.85;;;;;;;;;;5033211;28;20434;-56
2022/07/03 03:40:03;;;;;;;4.57;3.55;;;;;;;;;;5030927;28;20029;-56
2022/07/03 03:42:29;;;;;;;4.85;3.63;;;;;;;;;;5032266;28;20051;-56
2022/07/03 03:44:54;;;;;;;6.05;4.07;;;;;;;;;;5032575;28;20117;-56
2022/07/03 03:47:20;;;;;;;4.40;3.50;;;;;;;;;;5032836;28;20037;-56
2022/07/03 03:49:45;;;;;;;4.57;3.53;;;;;;;;;;5032813;28;20025;-56
2022/07/03 03:52:11;;;;;;;4.50;4.10;;;;;;;;;;5036013;28;20496;-56
2022/07/03 03:54:36;;;;;;;4.40;3.63;;;;;;;;;;5038940;28;20029;-56
2022/07/03 03:57:22;;;;;;;8.85;3.65;;;;;;;;;;5036070;28;20076;-56
2022/07/03 03:59:48;;;;;;;5.72;3.40;;;;;;;;;;5032578;28;20574;-56
2022/07/03 04:02:15;;;;;;;3.78;3.20;;;;;;;;;;5032289;28;20040;-56
2022/07/03 04:04:41;;;;;;;3.78;3.20;;;;;;;;;;5040597;28;20021;-56
2022/07/03 04:07:06;;;;;;;5.78;3.20;;;;;;;;;;5032560;28;20033;-56
2022/07/03 04:09:32;;;;;;;3.70;3.00;;;;;;;;;;5032110;28;20022;-55
2022/07/03 04:11:57;;;;;;;3.10;2.63;;;;;;;;;;5031766;28;20474;-56
2022/07/03 04:14:23;;;;;;;5.32;2.97;;;;;;;;;;5032583;28;20121;-56
2022/07/03 04:16:48;;;;;;;4.63;2.60;;;;;;;;;;5047521;28;20047;-56
2022/07/03 04:19:14;;;;;;;4.00;2.30;;;;;;;;;;5043676;28;20112;-56
2022/07/03 04:21:39;;;;;;;4.90;2.70;;;;;;;;;;5048310;28;20440;-56
2022/07/03 04:24:05;;;;;;;3.22;2.58;;;;;;;;;;5032237;28;20120;-56
2022/07/03 04:26:30;;;;;;;3.40;2.90;;;;;;;;;;5031449;28;20036;-56
2022/07/03 04:28:56;;;;;;;3.50;2.90;;;;;;;;;;5045434;28;20064;-56
2022/07/03 04:31:21;;;;;;;4.05;2.70;;;;;;;;;;5031347;28;20049;-56
2022/07/03 04:33:46;;;;;;;4.85;3.35;;;;;;;;;;5032120;28;20483;-56
2022/07/03 04:36:12;;;;;;;3.22;2.60;;;;;;;;;;5031424;28;20021;-56
2022/07/03 04:38:37;;;;;;;7.03;2.80;;;;;;;;;;5032310;28;20021;-56
2022/07/03 04:41:02;;;;;;;3.40;2.92;;;;;;;;;;5030225;28;20026;-56
2022/07/03 04:43:28;;;;;;;3.20;2.58;;;;;;;;;;5032000;28;20032;-56
2022/07/03 04:45:53;;;;;;;3.38;2.47;;;;;;;;;;5031631;28;20112;-56
2022/07/03 04:48:19;;;;;;;3.67;2.53;;;;;;;;;;5034726;28;20025;-57
2022/07/03 04:50:44;;;;;;;2.97;2.38;;;;;;;;;;5030442;28;20034;-58
2022/07/03 04:53:09;;;;;;;5.28;3.15;;;;;;;;;;5031817;28;20080;-56
2022/07/03 04:55:35;;;;;;;3.42;2.60;;;;;;;;;;5031757;28;20029;-57
2022/07/03 04:58:00;;;;;;;3.55;2.72;;;;;;;;;;5031842;28;20029;-57
2022/07/03 05:00:26;;;;;;;6.63;4.20;;;;;;;;;;5031334;28;20025;-57
2022/07/03 05:02:51;;;;;;;4.88;3.28;;;;;;;;;;5030562;28;20036;-57
2022/07/03 05:05:17;;;;;;;3.72;2.80;;;;;;;;;;5033935;28;20029;-59
2022/07/03 05:07:42;;;;;;;3.60;3.25;;;;;;;;;;5031419;28;20113;-59
2022/07/03 05:10:08;;;;;;;4.40;3.50;;;;;;;;;;5031281;28;20060;-59
2022/07/03 05:12:33;;;;;;;6.18;3.30;;;;;;;;;;5033684;28;20364;-59
2022/07/03 05:14:59;;;;;;;4.78;3.72;;;;;;;;;;5032736;28;20075;-60
2022/07/03 05:17:24;;;;;;;4.68;3.78;;;;;;;;;;5031062;28;20037;-59
2022/07/03 05:20:23;;;;;;;5.97;3.70;;;;;;;;;;5031408;28;20033;-59
2022/07/03 05:22:38;;;;;;;6.20;3.53;;;;;;;;;;5030194;28;20051;-59
2022/07/03 05:25:03;;;;;;;5.82;4.03;;;;;;;;;;5030620;28;20104;-60
2022/07/03 05:27:29;;;;;;;4.45;3.85;;;;;;;;;;5033780;28;20702;-59
2022/07/03 05:29:54;;;;;;;6.72;3.97;;;;;;;;;;5031175;28;20068;-59
2022/07/03 05:32:19;;;;;;;5.65;3.65;;;;;;;;;;5033318;28;20037;-59
2022/07/03 05:34:45;;;;;;;4.22;3.80;;;;;;;;;;5031208;28;20025;-59
2022/07/03 05:37:10;;;;;;;4.28;3.42;;;;;;;;;;5030735;28;20029;-59
2022/07/03 05:39:37;;;;;;;5.28;3.40;;;;;;;;;;5042216;28;20030;-59
2022/07/03 05:42:04;;;;;;;4.88;3.35;;;;;;;;;;5034731;28;20029;-59
2022/07/03 05:44:29;;;;;;;4.45;3.50;;;;;;;;;;5034292;28;20052;-60
2022/07/03 05:46:55;;;;;;;4.05;3.20;;;;;;;;;;5030971;28;20112;-59
2022/07/03 05:49:20;;;;;;;3.78;3.42;;;;;;;;;;5031197;28;20104;-59
2022/07/03 05:51:46;;;;;;;7.40;4.28;;;;;;;;;;5029810;28;20108;-59
2022/07/03 05:54:11;;;;;;;4.60;3.30;;;;;;;;;;5031160;28;20529;-59
2022/07/03 05:56:36;;;;;;;6.55;3.50;;;;;;;;;;5030232;28;20033;-59
2022/07/03 05:59:02;;;;;;;4.35;3.28;;;;;;;;;;5030737;28;20079;-59
2022/07/03 06:01:27;;;;;;;4.18;3.08;;;;;;;;;;5029752;28;20116;-59
2022/07/03 06:03:53;;;;;;;3.40;3.10;;;;;;;;;;5029572;28;20476;-57
2022/07/03 06:06:18;;;;;;;4.40;3.13;;;;;;;;;;5029686;28;20021;-58
2022/07/03 06:08:43;;;;;;;6.63;4.75;;;;;;;;;;5030882;28;20048;-58
2022/07/03 06:11:09;;;;;;;3.80;3.03;;;;;;;;;;5029542;28;20364;-58
2022/07/03 06:13:34;;;;;;;5.97;3.35;;;;;;;;;;5028796;28;20025;-58
2022/07/03 06:16:00;;;;;;;3.40;3.10;;;;;;;;;;5037102;28;20468;-59
2022/07/03 06:18:25;;;;;;;4.72;3.17;;;;;;;;;;5042830;28;20029;-58
2022/07/03 06:20:51;;;;;;;3.58;3.28;;;;;;;;;;5033306;28;20030;-58
2022/07/03 06:23:16;;;;;;;4.82;3.33;;;;;;;;;;5029171;28;20102;-58
2022/07/03 06:25:41;;;;;;;4.93;3.42;;;;;;;;;;5029841;28;20036;-58
2022/07/03 06:28:07;;;;;;;3.90;3.40;;;;;;;;;;5041229;28;20094;-58
2022/07/03 06:30:32;;;;;;;6.72;4.63;;;;;;;;;;5035033;28;20049;-58
2022/07/03 06:32:57;;;;;;;4.38;3.78;;;;;;;;;;5030201;28;20022;-58
2022/07/03 06:35:23;;;;;;;5.85;3.42;;;;;;;;;;5030229;28;20036;-58
2022/07/03 06:37:48;;;;;;;3.53;2.83;;;;;;;;;;5029980;28;20044;-58
2022/07/03 06:40:13;;;;;;;4.93;3.13;;;;;;;;;;5029782;28;20028;-58
2022/07/03 06:42:39;;;;;;;3.90;2.95;;;;;;;;;;5030024;28;20108;-58
2022/07/03 06:45:05;;;;;;;3.30;3.00;;;;;;;;;;5030106;28;20568;-58
2022/07/03 06:47:30;;;;;;;3.33;2.92;;;;;;;;;;5039379;28;20025;-59
2022/07/03 06:49:56;;;;;;;4.75;2.95;;;;;;;;;;5030516;28;20053;-57
2022/07/03 06:52:21;;;;;;;3.10;2.38;;;;;;;;;;5038153;28;20033;-58
2022/07/03 06:54:47;;;;;;;4.05;2.95;;;;;;;;;;5029681;28;20025;-58
2022/07/03 06:57:13;;;;;;;2.78;2.55;;;;;;;;;;5029992;28;20037;-58
2022/07/03 06:59:39;;;;;;;4.15;2.75;;;;;;;;;;5029571;28;20029;-58
2022/07/03 07:02:05;;;;;;;5.07;2.75;;;;;;;;;;5029611;28;20052;-58
2022/07/03 07:04:30;;;;;;;5.00;2.53;;;;;;;;;;5029659;28;20032;-58
2022/07/03 07:06:56;;;;;;;3.95;2.70;;;;;;;;;;5030109;28;20099;-57
2022/07/03 07:09:21;;;;;;;4.20;2.45;;;;;;;;;;5030015;28;20033;-58
2022/07/03 07:11:46;;;;;;;2.78;2.38;;;;;;;;;;5028751;28;20045;-57
2022/07/03 07:14:12;;;;;;;8.07;4.60;;;;;;;;;;5030667;28;20125;-57
2022/07/03 07:16:37;;;;;;;2.90;2.60;;;;;;;;;;5033770;28;20128;-60
2022/07/03 07:19:02;;;;;;;2.60;2.40;;;;;;;;;;5033065;28;20112;-58
2022/07/03 07:21:28;;;;;;;4.07;2.30;;;;;;;;;;5032592;28;20455;-59
2022/07/03 07:23:53;;;;;;;3.90;2.42;;;;;;;;;;5031903;28;20040;-59
2022/07/03 07:26:20;;;;;;;2.03;1.80;;;;;;;;;;5033165;28;20044;-58
2022/07/03 07:28:46;;;;;;;4.40;2.70;;;;;;;;;;5033286;28;20080;-59
2022/07/03 07:31:11;;;;;;;2.63;2.42;;;;;;;;;;5032600;28;20037;-58
2022/07/03 07:33:37;;;;;;;3.63;2.30;;;;;;;;;;5033592;28;20021;-59
2022/07/03 07:36:03;;;;;;;2.90;2.20;;;;;;;;;;5028457;28;20104;-59
2022/07/03 07:38:28;;;;;;;4.60;2.40;;;;;;;;;;5033110;28;20037;-59
2022/07/03 07:40:53;;;;;;;2.97;2.22;;;;;;;;;;5032231;28;20029;-59
2022/07/03 07:43:19;;;;;;;4.88;2.50;;;;;;;;;;5035371;28;20037;-59
2022/07/03 07:45:44;;;;;;;2.25;1.90;;;;;;;;;;5032908;28;20369;-59
2022/07/03 07:48:10;;;;;;;2.50;2.30;;;;;;;;;;5039927;28;20025;-59
2022/07/03 07:50:35;;;;;;;3.05;2.28;;;;;;;;;;5043068;28;20534;-60
2022/07/03 07:53:01;;;;;;;3.28;2.20;;;;;;;;;;5038466;28;20029;-59
2022/07/03 07:55:27;;;;;;;3.05;2.65;;;;;;;;;;5032455;28;20052;-60
2022/07/03 07:57:52;;;;;;;5.75;2.30;;;;;;;;;;5032788;28;20096;-60
2022/07/03 08:00:19;;;;;;;3.88;2.10;;;;;;;;;;5032838;28;20407;-58
2022/07/03 08:05:36;;;;;;;2.20;2.00;;;;;;;;;;5036252;28;20040;-58
2022/07/03 08:08:13;;;;;;;2.72;2.20;;;;;;;;;;5036367;28;20030;-59
2022/07/03 08:10:43;;;;;;;3.20;1.92;;;;;;;;;;5031987;28;20029;-59
2022/07/03 08:13:10;;;;;;;3.83;2.40;;;;;;;;;;5032359;28;20554;-58
2022/07/03 08:15:36;;;;;;;3.25;2.38;;;;;;;;;;5032455;28;20029;-59
2022/07/03 08:18:03;;;;;;;2.97;2.30;;;;;;;;;;5031972;28;20469;-59
2022/07/03 08:20:29;;;;;;;2.95;2.25;;;;;;;;;;5032181;28;20053;-59
2022/07/03 08:22:54;;;;;;;2.22;1.90;;;;;;;;;;5032110;28;20067;-59
2022/07/03 08:25:20;;;;;;;2.08;1.73;;;;;;;;;;5031456;28;20036;-60
2022/07/03 08:27:45;;;;;;;2.63;1.80;;;;;;;;;;5035495;28;20113;-58
2022/07/03 08:30:14;;;;;;;5.95;1.40;;;;;;;;;;5031974;28;20029;-59
2022/07/03 08:32:40;;;;;;;1.50;1.25;;;;;;;;;;5031513;28;20075;-58
2022/07/03 08:35:06;;;;;;;1.65;1.48;;;;;;;;;;5031787;28;20463;-58
2022/07/03 08:37:31;;;;;;;1.92;1.40;;;;;;;;;;5031900;28;20037;-58
2022/07/03 08:39:57;;;;;;;2.00;1.60;;;;;;;;;;5030052;28;20033;-59
2022/07/03 08:42:25;;;;;;;1.90;1.70;;;;;;;;;;5030889;28;20036;-60
2022/07/03 08:44:50;;;;;;;2.17;1.70;;;;;;;;;;5031703;28;20573;-59
2022/07/03 08:47:17;;;;;;;2.60;1.65;;;;;;;;;;5032443;28;20148;-59
2022/07/03 08:49:42;;;;;;;2.92;1.42;;;;;;;;;;5031469;28;20032;-59
2022/07/03 08:52:09;;;;;;;2.53;1.48;;;;;;;;;;5030834;28;20029;-59
2022/07/03 08:54:35;;;;;;;2.85;1.55;;;;;;;;;;5031426;28;20108;-59
2022/07/03 08:57:01;;;;;;;5.28;1.60;;;;;;;;;;5030425;28;20186;-59
2022/07/03 08:59:34;;;;;;;1.80;1.48;;;;;;;;;;5032031;28;20115;-59
2022/07/03 09:02:00;;;;;;;2.75;1.73;;;;;;;;;;5029102;28;20372;-59
2022/07/03 09:04:26;;;;;;;1.60;1.50;;;;;;;;;;5050565;28;20024;-60
2022/07/03 09:06:52;;;;;;;1.63;1.50;;;;;;;;;;5031976;28;20036;-59
2022/07/03 09:09:17;;;;;;;3.13;1.60;;;;;;;;;;5031303;28;20112;-59
2022/07/03 09:11:44;;;;;;;1.70;1.60;;;;;;;;;;5033743;28;20028;-59
2022/07/03 09:14:09;;;;;;;2.95;1.63;;;;;;;;;;5030304;28;20407;-59
2022/07/03 09:16:36;;;;;;;2.40;1.58;;;;;;;;;;5030781;28;20025;-59
2022/07/03 09:19:03;;;;;;;106.20;9.15;;;;;;;;;;5031514;28;20041;-59
2022/07/03 09:21:36;;;;;;;1999.90;999.90;;;;;;;;;;5030569;28;20033;-59
2022/07/03 09:24:07;;;;;;;1999.90;999.90;;;;;;;;;;5032986;28;20059;-59
2022/07/03 09:26:32;;;;;;;1999.90;999.90;;;;;;;;;;5037908;28;20035;-59
2022/07/03 09:28:58;;;;;;;1999.90;999.90;;;;;;;;;;5032585;28;20025;-59
2022/07/03 09:31:29;;;;;;;2.47;1.50;;;;;;;;;;5030417;28;20080;-59
2022/07/03 09:34:01;;;;;;;2.97;1.40;;;;;;;;;;5050126;28;20025;-59
2022/07/03 09:36:45;;;;;;;4.38;1.48;;;;;;;;;;5043574;28;20025;-59
2022/07/03 09:39:20;;;;;;;471.70;61.05;;;;;;;;;;5030972;28;20087;-59
2022/07/03 09:41:58;;;;;;;1.63;1.40;;;;;;;;;;5029845;28;20129;-58
2022/07/03 09:44:33;;;;;;;78.85;22.30;;;;;;;;;;5031146;28;20025;-58
2022/07/03 09:47:14;;;;;;;9.50;8.77;;;;;;;;;;5030926;28;20036;-58
2022/07/03 09:49:54;;;;;;;41.80;13.95;;;;;;;;;;5034245;28;20060;-59
2022/07/03 09:52:28;;;;;;;510.88;61.55;;;;;;;;;;5030401;28;20030;-59
2022/07/03 09:54:58;;;;;;;1999.90;999.90;;;;;;;;;;5030185;28;20419;-58
2022/07/03 09:57:23;;;;;;;2.20;1.33;;;;;;;;;;5030428;28;20060;-61
2022/07/03 09:59:49;;;;;;;3.95;1.27;;;;;;;;;;5030391;28;20033;-59
2022/07/03 10:02:14;;;;;;;2.47;1.20;;;;;;;;;;5030331;28;20030;-59
2022/07/03 10:04:40;;;;;;;1.40;1.20;;;;;;;;;;5030377;28;20471;-59
2022/07/03 10:07:05;;;;;;;2.53;1.20;;;;;;;;;;5030589;28;20025;-59
2022/07/03 10:09:34;;;;;;;3.15;1.40;;;;;;;;;;5029926;28;20037;-60
2022/07/03 10:12:02;;;;;;;1.35;1.17;;;;;;;;;;5029923;28;20074;-59
2022/07/03 10:14:32;;;;;;;2.78;1.08;;;;;;;;;;5031771;28;20060;-59
2022/07/03 10:17:00;;;;;;;1.95;0.90;;;;;;;;;;5030338;28;20029;-59
2022/07/03 10:19:28;;;;;;;7.80;1.35;;;;;;;;;;5030502;28;20344;-60
2022/07/03 10:22:00;;;;;;;2.08;1.13;;;;;;;;;;5029725;28;20479;-59
2022/07/03 10:24:28;;;;;;;1.40;1.20;;;;;;;;;;5044214;28;20044;-59
2022/07/03 10:26:55;;;;;;;346.98;44.88;;;;;;;;;;5036225;28;20030;-60
2022/07/03 10:29:22;;;;;;;1.90;1.00;;;;;;;;;;5030540;28;20037;-60
2022/07/03 10:31:48;;;;;;;0.88;0.80;;;;;;;;;;5029641;28;20039;-60
2022/07/03 10:34:22;;;;;;;1.73;1.10;;;;;;;;;;5030527;28;20060;-60
2022/07/03 10:36:53;;;;;;;145.73;23.08;;;;;;;;;;5017901;28;20025;-61
2022/07/03 10:39:43;;;;;;;1.65;1.10;;;;;;;;;;5030449;28;20042;-60
2022/07/03 10:45:06;;;;;;;1.25;1.00;;;;;;;;;;5030780;28;20663;-60
2022/07/03 10:47:42;;;;;;;0.90;0.80;;;;;;;;;;5030018;28;20049;-60
2022/07/03 10:50:12;;;;;;;1.02;0.93;;;;;;;;;;5032518;28;20479;-60
2022/07/03 10:52:39;;;;;;;145.80;11.25;;;;;;;;;;5033509;28;20036;-60
2022/07/03 10:55:06;;;;;;;1.00;0.90;;;;;;;;;;5033795;28;20029;-60
2022/07/03 10:57:32;;;;;;;1.40;1.20;;;;;;;;;;5034205;28;20037;-61
2022/07/03 11:00:00;;;;;;;1.85;1.00;;;;;;;;;;5037622;28;20044;-60
2022/07/03 11:02:31;;;;;;;1.25;1.08;;;;;;;;;;5033189;28;20025;-60
2022/07/03 11:04:59;;;;;;;3.45;1.20;;;;;;;;;;5033627;28;20064;-60
2022/07/03 11:07:26;;;;;;;0.93;0.88;;;;;;;;;;5039559;28;20548;-60
2022/07/03 11:10:10;;;;;;;1.00;0.90;;;;;;;;;;5033490;28;20111;-60
2022/07/03 11:12:56;;;;;;;1.10;1.00;;;;;;;;;;5029981;28;20523;-60
2022/07/03 11:15:37;;;;;;;4.55;1.10;;;;;;;;;;5045795;28;20028;-60
2022/07/03 11:18:06;;;;;;;1.58;1.00;;;;;;;;;;5035687;28;20403;-61
2022/07/03 11:20:43;;;;;;;0.95;0.82;;;;;;;;;;5033522;28;20041;-61
2022/07/03 11:23:30;;;;;;;2.88;0.90;;;;;;;;;;5033291;28;20025;-61
2022/07/03 11:26:20;;;;;;;1.30;1.08;;;;;;;;;;5033125;28;20511;-60
2022/07/03 11:28:45;;;;;;;2.10;1.00;;;;;;;;;;5033373;28;20026;-62
2022/07/03 11:31:11;;;;;;;2.35;0.93;;;;;;;;;;5032759;28;20026;-61
2022/07/03 11:33:51;;;;;;;1.20;0.90;;;;;;;;;;5033853;28;20033;-61
2022/07/03 11:36:17;;;;;;;1.63;0.80;;;;;;;;;;5043685;28;20029;-61
2022/07/03 11:39:02;;;;;;;1.52;1.10;;;;;;;;;;5033188;28;20026;-61
2022/07/03 11:41:44;;;;;;;1.10;1.00;;;;;;;;;;5032327;28;20541;-61
2022/07/03 11:44:13;;;;;;;1.52;0.95;;;;;;;;;;5032701;28;20131;-61
2022/07/03 11:46:39;;;;;;;1.83;0.80;;;;;;;;;;5033136;28;20029;-61
2022/07/03 11:49:13;;;;;;;1.75;0.93;;;;;;;;;;5032975;28;20109;-61
2022/07/03 11:51:41;;;;;;;1.65;0.90;;;;;;;;;;5032087;28;20049;-61
2022/07/03 11:54:06;;;;;;;1.17;0.90;;;;;;;;;;5032984;28;20029;-61
2022/07/03 11:56:33;;;;;;;2.45;0.90;;;;;;;;;;5035473;28;20040;-61
2022/07/03 11:59:00;;;;;;;1.80;0.90;;;;;;;;;;5032921;28;20395;-60
2022/07/03 12:01:25;;;;;;;2.20;0.77;;;;;;;;;;5036673;28;20037;-60
2022/07/03 12:04:02;;;;;;;1.65;0.93;;;;;;;;;;5046391;28;20567;-61
2022/07/03 12:06:53;;;;;;;2.38;0.93;;;;;;;;;;5033048;28;20018;-60
2022/07/03 12:09:26;;;;;;;1.10;0.82;;;;;;;;;;5051791;28;20116;-61
2022/07/03 12:11:52;;;;;;;1.90;1.15;;;;;;;;;;5035270;28;20029;-60
2022/07/03 12:14:36;;;;;;;2.15;0.93;;;;;;;;;;5032962;28;20022;-61
2022/07/03 12:17:01;;;;;;;1.67;0.98;;;;;;;;;;5031137;28;20411;-60
2022/07/03 12:19:27;;;;;;;1.42;0.95;;;;;;;;;;5032180;28;20026;-61
2022/07/03 12:21:52;;;;;;;1.20;1.00;;;;;;;;;;5038045;28;20033;-61
2022/07/03 12:24:18;;;;;;;2.17;1.05;;;;;;;;;;5032635;28;20031;-61
2022/07/03 12:26:43;;;;;;;1.95;1.10;;;;;;;;;;5038878;28;20029;-60
2022/07/03 12:29:10;;;;;;;2.08;1.00;;;;;;;;;;5034937;28;20541;-61
2022/07/03 12:31:40;;;;;;;2.00;1.10;;;;;;;;;;5031505;28;20071;-61
2022/07/03 12:34:06;;;;;;;2.92;1.00;;;;;;;;;;5032548;28;20036;-61
2022/07/03 12:36:31;;;;;;;3.45;1.15;;;;;;;;;;5032420;28;20703;-61
2022/07/03 12:38:59;;;;;;;2.10;1.00;;;;;;;;;;5036086;28;20034;-61
2022/07/03 12:41:25;;;;;;;2.20;1.10;;;;;;;;;;5030604;28;20553;-61
2022/07/03 12:43:52;;;;;;;1.30;1.00;;;;;;;;;;5032428;28;20032;-61
2022/07/03 12:46:34;;;;;;;3.75;1.00;;;;;;;;;;5031817;28;20509;-61
2022/07/03 12:49:08;;;;;;;1.83;1.20;;;;;;;;;;5031997;28;20105;-62
2022/07/03 12:51:43;;;;;;;2.33;0.90;;;;;;;;;;5031133;28;20127;-61
2022/07/03 12:54:11;;;;;;;2.88;1.10;;;;;;;;;;5030553;28;20032;-61
2022/07/03 12:56:37;;;;;;;3.28;1.10;;;;;;;;;;5032944;28;20025;-62
2022/07/03 12:59:37;;;;;;;1.42;1.02;;;;;;;;;;5030642;28;20026;-61
2022/07/03 13:02:05;;;;;;;3.67;1.23;;;;;;;;;;5031103;28;20073;-61
2022/07/03 13:04:31;;;;;;;2.58;1.20;;;;;;;;;;5031431;28;20407;-61
2022/07/03 13:07:05;;;;;;;1.50;1.20;;;;;;;;;;5028577;28;20032;-61
2022/07/03 13:09:32;;;;;;;2.50;1.00;;;;;;;;;;5031333;28;20084;-61
2022/07/03 13:11:57;;;;;;;1.10;1.00;;;;;;;;;;5030268;28;20132;-62
2022/07/03 13:14:24;;;;;;;2.60;1.10;;;;;;;;;;5031276;28;20109;-61
2022/07/03 13:16:52;;;;;;;3.65;1.00;;;;;;;;;;5030969;28;20112;-62
2022/07/03 13:19:20;;;;;;;3.95;1.10;;;;;;;;;;5027268;28;20037;-61
2022/07/03 13:21:46;;;;;;;1.40;1.23;;;;;;;;;;5030046;28;20033;-62
2022/07/03 13:24:14;;;;;;;2.28;1.20;;;;;;;;;;5037161;28;20040;-62
2022/07/03 13:26:39;;;;;;;;;;;;;;;;;;5031403;28;20034;-61
2022/07/03 13:29:05;;;;;;;1.38;1.20;;;;;;;;;;5031475;28;20213;-62
2022/07/03 13:31:31;;;;;;;2.50;1.10;;;;;;;;;;5029960;28;20021;-62
2022/07/03 13:33:58;;;;;;;1.85;0.95;;;;;;;;;;5036372;28;20497;-62
2022/07/03 13:36:25;;;;;;;2.20;1.00;;;;;;;;;;5030721;28;20038;-62
2022/07/03 13:38:50;;;;;;;1.25;1.00;;;;;;;;;;5030909;28;20025;-62
2022/07/03 13:41:16;;;;;;;1.48;0.93;;;;;;;;;;5028543;28;20052;-62
2022/07/03 13:43:41;;;;;;;1.35;0.90;;;;;;;;;;5030982;28;20033;-62
2022/07/03 13:46:07;;;;;;;1.30;1.20;;;;;;;;;;5030778;28;20036;-61
2022/07/03 13:48:32;;;;;;;1.55;1.00;;;;;;;;;;5040773;28;20024;-63
2022/07/03 13:50:58;;;;;;;3.95;1.20;;;;;;;;;;5038328;28;20082;-61
2022/07/03 13:53:23;;;;;;;1.58;1.08;;;;;;;;;;5032929;28;20506;-62
2022/07/03 13:55:49;;;;;;;3.58;1.20;;;;;;;;;;5029990;28;20553;-61
2022/07/03 13:58:14;;;;;;;2.85;1.00;;;;;;;;;;5030967;28;20033;-61
2022/07/03 14:00:39;;;;;;;4.30;1.20;;;;;;;;;;5030087;28;20049;-61
2022/07/03 14:03:05;;;;;;;0.95;0.90;;;;;;;;;;5030367;28;20105;-61
2022/07/03 14:05:31;;;;;;;3.90;1.00;;;;;;;;;;5030529;28;20486;-61
2022/07/03 14:07:56;;;;;;;1.42;1.20;;;;;;;;;;5030539;28;20116;-61
2022/07/03 14:10:24;;;;;;;1.00;0.90;;;;;;;;;;5030163;28;20029;-61
2022/07/03 14:12:50;;;;;;;1.30;0.90;;;;;;;;;;5029932;28;20572;-61
2022/07/03 14:15:16;;;;;;;1.73;0.90;;;;;;;;;;5031528;28;20116;-61
2022/07/03 14:17:43;;;;;;;2.65;0.90;;;;;;;;;;5030084;28;20033;-60
2022/07/03 14:20:09;;;;;;;3.47;1.10;;;;;;;;;;5030357;28;20025;-60
2022/07/03 14:22:35;;;;;;;1.85;1.25;;;;;;;;;;5033003;28;20059;-61
2022/07/03 14:25:00;;;;;;;2.10;0.93;;;;;;;;;;5029430;28;20104;-61
2022/07/03 14:32:54;;;;;;;2.22;1.08;;;;;;;;;;5029961;28;20040;-61
2022/07/03 14:35:20;;;;;;;4.13;0.80;;;;;;;;;;5029990;28;20037;-61
2022/07/03 14:37:45;;;;;;;2.88;1.20;;;;;;;;;;5030331;28;20033;-61
2022/07/03 14:40:11;;;;;;;3.00;1.00;;;;;;;;;;5029612;28;20036;-61
2022/07/03 14:42:36;;;;;;;1.40;0.93;;;;;;;;;;5031667;28;20491;-61
2022/07/03 14:45:02;;;;;;;2.35;1.20;;;;;;;;;;5032642;28;20399;-62
2022/07/03 14:47:27;;;;;;;2.92;1.10;;;;;;;;;;5030478;28;20052;-62
2022/07/03 14:49:53;;;;;;;5.20;1.30;;;;;;;;;;5030192;28;20480;-62
2022/07/03 14:52:18;;;;;;;1.73;1.00;;;;;;;;;;5029626;28;20670;-62
2022/07/03 14:54:43;;;;;;;2.53;0.80;;;;;;;;;;5029257;28;20033;-61
2022/07/03 14:57:52;;;;;;;1.85;0.90;;;;;;;;;;5030073;28;20437;-62
2022/07/03 15:00:19;;;;;;;2.55;0.80;;;;;;;;;;5027578;28;20034;-61